YELS weather

Earlston Airport
Victoria, Australia

Public forecast

Using degrees Celsius for public forecast. Weather courtesy of forecast.io.

METAR (pilot weather report)

Closest report is Wangaratta Airport, 30.2 nm (56.0 km) ENE. Retrieved 2019/03/23 08:00 UTC (7 minutes ago):

YWGT 230800Z AUTO 05004KT 9999 // NCD 25/15 Q1008

TAF (pilot weather forecast)

Forecast is more than 6 hours old.

Closest forecast is Wangaratta Airport, 30.2 nm (56.0 km) ENE. Retrieved 2019/03/23 02:03 UTC (6 hours ago):

TAF YWGT 230059Z 2302/2314 06012KT CAVOK